Airport View

Enter AWOS ICAO identifier for current METAR.

ex. KFNL

KLBE 191915Z AUTO 27011G18KT 2 1/2SM -SN SCT018 BKN028 OVC070 M05/M08 A3002 RMK AO2

19 Jan 2020 19:19

Phone: 724-537-0671

Other Area AWOS: K2G9 - KAGC - KIDI - KJST

TAF AMD KLBE 191905Z 1919/2018 27011G20KT 6SM -SN OVC025 TEMPO 1919/1923 2SM -SN BKN010 FM200500 28010G18KT P6SM -SHSN OVC019 FM200800 28010KT P6SM OVC020 FM201600 28008KT P6SM SCT250